createdAt,value
2023-04-09T00:12:25.658Z,28.26
2023-04-09T00:42:25.227Z,28.52
2023-04-09T00:57:25.849Z,23.94
2023-04-09T01:12:25.280Z,26.34
2023-04-09T01:42:25.349Z,25.19
2023-04-09T01:57:25.219Z,26.66
2023-04-09T02:12:25.796Z,28.42
2023-04-09T02:27:25.227Z,23.51
2023-04-09T02:42:25.298Z,20.66
2023-04-09T02:57:25.292Z,19.46
2023-04-09T03:12:25.555Z,20.23
2023-04-09T03:27:25.383Z,25.88
2023-04-09T03:42:25.894Z,20.49
2023-04-09T03:57:25.161Z,21.74
2023-04-09T04:12:25.966Z,23.62
2023-04-09T04:27:25.727Z,21.23
2023-04-09T04:57:25.477Z,26.93
2023-04-09T05:12:25.358Z,22.74
2023-04-09T05:27:25.427Z,21.35
2023-04-09T05:57:25.842Z,27.71
2023-04-09T06:12:25.427Z,28.41
2023-04-09T06:42:25.360Z,19.89
2023-04-09T06:57:25.140Z,17.58
2023-04-09T07:27:25.351Z,11.95
2023-04-09T07:42:25.462Z,10.39
2023-04-09T07:57:26.971Z,17.22
2023-04-09T08:12:25.383Z,6.27
2023-04-09T08:27:25.693Z,4.78
2023-04-09T08:42:25.655Z,6.04
2023-04-09T08:57:25.404Z,6.38
2023-04-09T09:12:25.985Z,4.32
2023-04-09T10:12:25.910Z,3.8
2023-04-09T10:27:25.985Z,4.5
2023-04-09T10:42:26.019Z,5.52
2023-04-09T10:57:25.819Z,4.81
2023-04-09T11:12:26.034Z,6
2023-04-09T11:27:25.719Z,6.6
2023-04-09T11:42:26.036Z,4.56
2023-04-09T11:57:25.869Z,4.23
2023-04-09T12:27:25.845Z,5.47
2023-04-09T12:42:25.894Z,5.65
2023-04-09T13:12:25.428Z,3.43
2023-04-09T13:27:25.666Z,3.19
2023-04-09T13:42:25.862Z,2.28
2023-04-09T14:12:26.061Z,2.44
2023-04-09T14:42:25.765Z,2.16
2023-04-09T14:57:25.958Z,1.8
2023-04-09T15:12:25.512Z,2.04
2023-04-09T15:27:25.953Z,2.17
2023-04-09T15:42:29.810Z,1.78
2023-04-09T15:57:25.280Z,3.15
2023-04-09T16:12:25.599Z,5.27
2023-04-09T16:27:25.671Z,2.65
2023-04-09T16:42:25.917Z,3.06
2023-04-09T17:12:26.150Z,5.03
2023-04-09T17:27:25.839Z,6.35
2023-04-09T17:42:25.477Z,7.4
2023-04-09T17:57:40.745Z,12.41
2023-04-09T18:12:25.496Z,5.99
2023-04-09T18:27:25.412Z,11.9
2023-04-09T18:42:25.507Z,18.64
2023-04-09T18:57:25.988Z,13.04
2023-04-09T19:12:25.488Z,17.29
2023-04-09T19:27:25.680Z,10.23
2023-04-09T19:57:25.794Z,9.15
2023-04-09T20:12:25.637Z,10.73
2023-04-09T20:42:25.441Z,15.47
2023-04-09T20:57:26.487Z,9.02
2023-04-09T21:12:25.397Z,13.07
2023-04-09T21:27:25.304Z,10.03
2023-04-09T21:42:25.925Z,11.42
2023-04-09T21:57:26.122Z,9.76
2023-04-09T22:12:25.731Z,8.07
2023-04-09T22:27:25.648Z,8.42
2023-04-09T22:42:25.356Z,9.32
2023-04-09T22:57:25.749Z,9.95
2023-04-09T23:12:25.973Z,6.56
2023-04-09T23:27:25.353Z,6.54
2023-04-09T23:57:26.708Z,6.14
